sensor_id;sensor_type;location;lat;lon;timestamp;temperature;humidity
23143;DHT22;11740;51.168;4.112;2023-06-14T00:01:30;24.90;1.00
23143;DHT22;11740;51.168;4.112;2023-06-14T00:03:58;24.80;1.00
23143;DHT22;11740;51.168;4.112;2023-06-14T00:06:25;24.80;1.00
23143;DHT22;11740;51.168;4.112;2023-06-14T00:08:52;24.70;1.00
23143;DHT22;11740;51.168;4.112;2023-06-14T00:11:20;24.50;1.00
23143;DHT22;11740;51.168;4.112;2023-06-14T00:13:47;24.50;1.00
23143;DHT22;11740;51.168;4.112;2023-06-14T00:16:14;24.40;1.00
23143;DHT22;11740;51.168;4.112;2023-06-14T00:18:43;24.40;1.00
23143;DHT22;11740;51.168;4.112;2023-06-14T00:21:10;24.30;1.00
23143;DHT22;11740;51.168;4.112;2023-06-14T00:23:37;24.30;1.00
23143;DHT22;11740;51.168;4.112;2023-06-14T00:26:03;24.20;1.00
23143;DHT22;11740;51.168;4.112;2023-06-14T00:28:30;24.20;1.00
23143;DHT22;11740;51.168;4.112;2023-06-14T00:30:57;24.10;1.00
23143;DHT22;11740;51.168;4.112;2023-06-14T00:33:24;24.00;1.00
23143;DHT22;11740;51.168;4.112;2023-06-14T00:35:52;23.90;1.00
23143;DHT22;11740;51.168;4.112;2023-06-14T00:38:21;23.90;1.00
23143;DHT22;11740;51.168;4.112;2023-06-14T00:40:48;23.80;1.00
23143;DHT22;11740;51.168;4.112;2023-06-14T00:43:15;23.70;1.00
23143;DHT22;11740;51.168;4.112;2023-06-14T00:45:42;23.70;1.00
23143;DHT22;11740;51.168;4.112;2023-06-14T00:48:08;23.60;1.00
23143;DHT22;11740;51.168;4.112;2023-06-14T00:50:36;23.50;1.00
23143;DHT22;11740;51.168;4.112;2023-06-14T00:53:03;23.50;1.00
23143;DHT22;11740;51.168;4.112;2023-06-14T00:55:29;23.40;1.00
23143;DHT22;11740;51.168;4.112;2023-06-14T00:57:56;23.30;1.00
23143;DHT22;11740;51.168;4.112;2023-06-14T01:00:23;23.20;1.00
23143;DHT22;11740;51.168;4.112;2023-06-14T01:02:50;23.10;1.00
23143;DHT22;11740;51.168;4.112;2023-06-14T01:05:17;23.00;1.00
23143;DHT22;11740;51.168;4.112;2023-06-14T01:15:51;22.50;1.00
23143;DHT22;11740;51.168;4.112;2023-06-14T01:18:18;22.50;1.00
23143;DHT22;11740;51.168;4.112;2023-06-14T01:20:46;22.40;1.00
23143;DHT22;11740;51.168;4.112;2023-06-14T01:23:20;22.30;1.00
23143;DHT22;11740;51.168;4.112;2023-06-14T01:25:47;22.40;1.00
23143;DHT22;11740;51.168;4.112;2023-06-14T01:28:20;22.30;1.00
23143;DHT22;11740;51.168;4.112;2023-06-14T01:30:51;22.30;1.00
23143;DHT22;11740;51.168;4.112;2023-06-14T01:33:22;22.20;1.00
23143;DHT22;11740;51.168;4.112;2023-06-14T01:35:50;22.10;1.00
23143;DHT22;11740;51.168;4.112;2023-06-14T01:38:21;22.10;1.00
23143;DHT22;11740;51.168;4.112;2023-06-14T01:40:50;22.10;1.00
23143;DHT22;11740;51.168;4.112;2023-06-14T01:43:18;21.90;1.00
23143;DHT22;11740;51.168;4.112;2023-06-14T01:45:45;21.90;1.00
23143;DHT22;11740;51.168;4.112;2023-06-14T01:48:14;21.80;1.00
23143;DHT22;11740;51.168;4.112;2023-06-14T01:50:41;21.70;1.00
23143;DHT22;11740;51.168;4.112;2023-06-14T01:53:08;21.80;1.00
23143;DHT22;11740;51.168;4.112;2023-06-14T01:55:35;21.80;1.00
23143;DHT22;11740;51.168;4.112;2023-06-14T01:58:04;21.60;1.00
23143;DHT22;11740;51.168;4.112;2023-06-14T02:00:31;21.50;1.00
23143;DHT22;11740;51.168;4.112;2023-06-14T02:02:58;21.50;1.00
23143;DHT22;11740;51.168;4.112;2023-06-14T02:05:25;21.40;1.00
23143;DHT22;11740;51.168;4.112;2023-06-14T02:07:53;21.40;1.00
23143;DHT22;11740;51.168;4.112;2023-06-14T02:10:20;21.40;1.00
23143;DHT22;11740;51.168;4.112;2023-06-14T02:12:47;21.30;1.00
23143;DHT22;11740;51.168;4.112;2023-06-14T02:15:13;21.30;1.00
23143;DHT22;11740;51.168;4.112;2023-06-14T02:17:43;21.10;1.00
23143;DHT22;11740;51.168;4.112;2023-06-14T02:20:11;21.10;1.00
23143;DHT22;11740;51.168;4.112;2023-06-14T02:22:39;21.00;1.00
23143;DHT22;11740;51.168;4.112;2023-06-14T02:25:06;21.00;1.00
23143;DHT22;11740;51.168;4.112;2023-06-14T02:27:34;20.90;1.00
23143;DHT22;11740;51.168;4.112;2023-06-14T02:30:01;20.80;1.00
23143;DHT22;11740;51.168;4.112;2023-06-14T02:32:28;20.80;1.00
23143;DHT22;11740;51.168;4.112;2023-06-14T02:34:55;20.80;1.00
23143;DHT22;11740;51.168;4.112;2023-06-14T02:37:22;20.80;1.00
23143;DHT22;11740;51.168;4.112;2023-06-14T02:39:48;20.60;1.00
23143;DHT22;11740;51.168;4.112;2023-06-14T02:42:15;20.70;1.00
23143;DHT22;11740;51.168;4.112;2023-06-14T02:44:42;20.60;1.00
23143;DHT22;11740;51.168;4.112;2023-06-14T02:47:10;20.50;1.00
23143;DHT22;11740;51.168;4.112;2023-06-14T02:49:37;20.40;1.00
23143;DHT22;11740;51.168;4.112;2023-06-14T02:52:04;20.40;1.00
23143;DHT22;11740;51.168;4.112;2023-06-14T02:54:31;20.40;1.00
23143;DHT22;11740;51.168;4.112;2023-06-14T02:56:58;20.40;1.00
23143;DHT22;11740;51.168;4.112;2023-06-14T02:59:25;20.40;1.00
23143;DHT22;11740;51.168;4.112;2023-06-14T03:01:52;20.30;1.00
23143;DHT22;11740;51.168;4.112;2023-06-14T03:04:19;20.20;1.00
23143;DHT22;11740;51.168;4.112;2023-06-14T03:06:47;20.20;1.00
23143;DHT22;11740;51.168;4.112;2023-06-14T03:09:16;20.10;1.00
23143;DHT22;11740;51.168;4.112;2023-06-14T03:11:43;20.10;1.00
23143;DHT22;11740;51.168;4.112;2023-06-14T03:14:10;20.10;1.00
23143;DHT22;11740;51.168;4.112;2023-06-14T03:16:38;20.00;1.00
23143;DHT22;11740;51.168;4.112;2023-06-14T03:19:05;20.00;1.00
23143;DHT22;11740;51.168;4.112;2023-06-14T03:21:32;19.90;1.00
23143;DHT22;11740;51.168;4.112;2023-06-14T03:23:58;19.90;1.00
23143;DHT22;11740;51.168;4.112;2023-06-14T03:26:26;19.80;1.00
23143;DHT22;11740;51.168;4.112;2023-06-14T03:28:53;19.80;1.00
23143;DHT22;11740;51.168;4.112;2023-06-14T03:31:19;19.70;1.00
23143;DHT22;11740;51.168;4.112;2023-06-14T03:33:46;19.70;1.00
23143;DHT22;11740;51.168;4.112;2023-06-14T03:36:13;19.60;1.00
23143;DHT22;11740;51.168;4.112;2023-06-14T03:38:40;19.50;1.00
23143;DHT22;11740;51.168;4.112;2023-06-14T03:41:07;19.50;1.00
23143;DHT22;11740;51.168;4.112;2023-06-14T03:43:34;19.40;1.00
23143;DHT22;11740;51.168;4.112;2023-06-14T03:46:01;19.30;1.00
23143;DHT22;11740;51.168;4.112;2023-06-14T03:48:28;19.30;1.00
23143;DHT22;11740;51.168;4.112;2023-06-14T03:50:55;19.20;1.00
23143;DHT22;11740;51.168;4.112;2023-06-14T03:53:26;19.20;1.00
23143;DHT22;11740;51.168;4.112;2023-06-14T03:55:55;19.20;1.00
23143;DHT22;11740;51.168;4.112;2023-06-14T03:58:23;19.20;1.00
23143;DHT22;11740;51.168;4.112;2023-06-14T04:00:50;19.20;1.00
23143;DHT22;11740;51.168;4.112;2023-06-14T04:03:17;19.20;1.00
23143;DHT22;11740;51.168;4.112;2023-06-14T04:05:46;19.10;1.00
23143;DHT22;11740;51.168;4.112;2023-06-14T04:08:16;19.10;1.00
23143;DHT22;11740;51.168;4.112;2023-06-14T04:10:45;19.10;1.00
23143;DHT22;11740;51.168;4.112;2023-06-14T04:13:12;19.00;1.00
23143;DHT22;11740;51.168;4.112;2023-06-14T04:15:39;19.10;1.00
23143;DHT22;11740;51.168;4.112;2023-06-14T04:18:10;19.00;1.00
23143;DHT22;11740;51.168;4.112;2023-06-14T04:20:37;19.00;1.00
23143;DHT22;11740;51.168;4.112;2023-06-14T04:23:13;19.00;1.00
23143;DHT22;11740;51.168;4.112;2023-06-14T04:25:41;18.90;1.00
23143;DHT22;11740;51.168;4.112;2023-06-14T04:28:11;18.90;1.00
23143;DHT22;11740;51.168;4.112;2023-06-14T04:30:38;18.80;1.00
23143;DHT22;11740;51.168;4.112;2023-06-14T04:33:07;18.80;1.00
23143;DHT22;11740;51.168;4.112;2023-06-14T04:35:34;18.80;1.00
23143;DHT22;11740;51.168;4.112;2023-06-14T04:38:05;18.80;1.00
23143;DHT22;11740;51.168;4.112;2023-06-14T04:40:35;18.80;1.00
23143;DHT22;11740;51.168;4.112;2023-06-14T04:43:09;18.80;1.00
23143;DHT22;11740;51.168;4.112;2023-06-14T04:45:38;18.80;1.00
23143;DHT22;11740;51.168;4.112;2023-06-14T04:48:06;18.80;1.00
23143;DHT22;11740;51.168;4.112;2023-06-14T04:50:33;18.80;1.00
23143;DHT22;11740;51.168;4.112;2023-06-14T04:53:01;18.80;1.00
23143;DHT22;11740;51.168;4.112;2023-06-14T04:55:29;18.70;1.00
23143;DHT22;11740;51.168;4.112;2023-06-14T04:57:56;18.70;1.00
23143;DHT22;11740;51.168;4.112;2023-06-14T05:00:23;18.80;1.00
23143;DHT22;11740;51.168;4.112;2023-06-14T05:02:50;18.70;1.00
23143;DHT22;11740;51.168;4.112;2023-06-14T05:05:17;18.80;1.00
23143;DHT22;11740;51.168;4.112;2023-06-14T05:07:44;18.70;1.00
23143;DHT22;11740;51.168;4.112;2023-06-14T05:10:11;18.80;1.00
23143;DHT22;11740;51.168;4.112;2023-06-14T05:12:38;18.80;1.00
23143;DHT22;11740;51.168;4.112;2023-06-14T05:15:05;18.80;1.00
23143;DHT22;11740;51.168;4.112;2023-06-14T05:17:32;18.80;1.00
23143;DHT22;11740;51.168;4.112;2023-06-14T05:19:59;18.80;1.00
23143;DHT22;11740;51.168;4.112;2023-06-14T05:22:26;18.80;1.00
23143;DHT22;11740;51.168;4.112;2023-06-14T05:24:53;18.80;1.00
23143;DHT22;11740;51.168;4.112;2023-06-14T05:27:20;18.80;1.00
23143;DHT22;11740;51.168;4.112;2023-06-14T05:29:47;18.90;1.00
23143;DHT22;11740;51.168;4.112;2023-06-14T05:32:14;18.90;1.00
23143;DHT22;11740;51.168;4.112;2023-06-14T05:34:41;18.90;1.00
23143;DHT22;11740;51.168;4.112;2023-06-14T05:37:09;19.00;1.00
23143;DHT22;11740;51.168;4.112;2023-06-14T05:39:36;19.00;1.00
23143;DHT22;11740;51.168;4.112;2023-06-14T05:42:03;19.00;1.00
23143;DHT22;11740;51.168;4.112;2023-06-14T05:44:30;19.10;1.00
23143;DHT22;11740;51.168;4.112;2023-06-14T05:46:57;19.10;1.00
23143;DHT22;11740;51.168;4.112;2023-06-14T05:49:24;19.10;1.00
23143;DHT22;11740;51.168;4.112;2023-06-14T05:51:50;19.10;1.00
23143;DHT22;11740;51.168;4.112;2023-06-14T05:54:17;19.10;1.00
23143;DHT22;11740;51.168;4.112;2023-06-14T05:56:44;19.20;1.00
23143;DHT22;11740;51.168;4.112;2023-06-14T05:59:11;19.20;1.00
23143;DHT22;11740;51.168;4.112;2023-06-14T06:01:38;19.20;1.00
23143;DHT22;11740;51.168;4.112;2023-06-14T06:04:06;19.30;1.00
23143;DHT22;11740;51.168;4.112;2023-06-14T06:06:34;19.30;1.00
23143;DHT22;11740;51.168;4.112;2023-06-14T06:09:02;19.40;1.00
23143;DHT22;11740;51.168;4.112;2023-06-14T06:11:29;19.40;1.00
23143;DHT22;11740;51.168;4.112;2023-06-14T06:14:10;19.40;1.00
23143;DHT22;11740;51.168;4.112;2023-06-14T06:16:36;19.40;1.00
23143;DHT22;11740;51.168;4.112;2023-06-14T06:19:03;19.50;1.00
23143;DHT22;11740;51.168;4.112;2023-06-14T06:21:30;19.50;1.00
23143;DHT22;11740;51.168;4.112;2023-06-14T06:23:58;19.60;1.00
23143;DHT22;11740;51.168;4.112;2023-06-14T06:26:25;19.60;1.00
23143;DHT22;11740;51.168;4.112;2023-06-14T06:28:52;19.60;1.00
23143;DHT22;11740;51.168;4.112;2023-06-14T06:31:19;19.70;1.00
23143;DHT22;11740;51.168;4.112;2023-06-14T06:33:46;19.70;1.00
23143;DHT22;11740;51.168;4.112;2023-06-14T06:36:13;19.70;1.00
23143;DHT22;11740;51.168;4.112;2023-06-14T06:38:40;19.70;1.00
23143;DHT22;11740;51.168;4.112;2023-06-14T06:41:07;19.80;1.00
23143;DHT22;11740;51.168;4.112;2023-06-14T06:43:34;19.90;1.00
23143;DHT22;11740;51.168;4.112;2023-06-14T06:46:00;19.90;1.00
23143;DHT22;11740;51.168;4.112;2023-06-14T06:48:27;20.00;1.00
23143;DHT22;11740;51.168;4.112;2023-06-14T06:50:55;20.00;1.00
23143;DHT22;11740;51.168;4.112;2023-06-14T06:53:21;20.10;1.00
23143;DHT22;11740;51.168;4.112;2023-06-14T06:56:05;20.00;1.00
23143;DHT22;11740;51.168;4.112;2023-06-14T06:58:33;20.10;1.00
23143;DHT22;11740;51.168;4.112;2023-06-14T07:00:59;20.10;1.00
23143;DHT22;11740;51.168;4.112;2023-06-14T07:03:26;20.20;1.00
23143;DHT22;11740;51.168;4.112;2023-06-14T07:05:53;20.20;1.00
23143;DHT22;11740;51.168;4.112;2023-06-14T07:08:20;20.30;1.00
23143;DHT22;11740;51.168;4.112;2023-06-14T07:10:47;20.30;1.00
23143;DHT22;11740;51.168;4.112;2023-06-14T07:13:14;20.40;1.00
23143;DHT22;11740;51.168;4.112;2023-06-14T07:15:41;20.50;1.00
23143;DHT22;11740;51.168;4.112;2023-06-14T07:18:08;20.50;1.00
23143;DHT22;11740;51.168;4.112;2023-06-14T07:20:35;20.50;1.00
23143;DHT22;11740;51.168;4.112;2023-06-14T07:23:04;20.50;1.00
23143;DHT22;11740;51.168;4.112;2023-06-14T07:25:32;20.60;1.00
23143;DHT22;11740;51.168;4.112;2023-06-14T07:27:59;20.70;1.00
23143;DHT22;11740;51.168;4.112;2023-06-14T07:30:25;20.80;1.00
23143;DHT22;11740;51.168;4.112;2023-06-14T07:32:53;20.80;1.00
23143;DHT22;11740;51.168;4.112;2023-06-14T07:35:21;20.80;1.00
23143;DHT22;11740;51.168;4.112;2023-06-14T07:37:48;20.90;1.00
23143;DHT22;11740;51.168;4.112;2023-06-14T07:40:15;21.00;1.00
23143;DHT22;11740;51.168;4.112;2023-06-14T07:42:42;21.00;1.00
23143;DHT22;11740;51.168;4.112;2023-06-14T07:45:09;21.10;1.00
23143;DHT22;11740;51.168;4.112;2023-06-14T07:47:36;21.10;1.00
23143;DHT22;11740;51.168;4.112;2023-06-14T07:50:03;21.20;1.00
23143;DHT22;11740;51.168;4.112;2023-06-14T07:52:30;21.30;1.00
23143;DHT22;11740;51.168;4.112;2023-06-14T07:54:57;21.40;1.00
23143;DHT22;11740;51.168;4.112;2023-06-14T07:57:25;21.40;1.00
23143;DHT22;11740;51.168;4.112;2023-06-14T07:59:52;21.50;1.00
23143;DHT22;11740;51.168;4.112;2023-06-14T08:02:19;21.60;1.00
23143;DHT22;11740;51.168;4.112;2023-06-14T08:04:46;21.70;1.00
23143;DHT22;11740;51.168;4.112;2023-06-14T08:07:14;21.90;1.00
23143;DHT22;11740;51.168;4.112;2023-06-14T08:09:41;22.10;1.00
23143;DHT22;11740;51.168;4.112;2023-06-14T08:12:08;22.40;1.00
23143;DHT22;11740;51.168;4.112;2023-06-14T08:14:36;22.60;1.00
23143;DHT22;11740;51.168;4.112;2023-06-14T08:17:03;22.80;1.00
23143;DHT22;11740;51.168;4.112;2023-06-14T08:19:30;22.90;1.00
23143;DHT22;11740;51.168;4.112;2023-06-14T08:21:57;23.20;1.00
23143;DHT22;11740;51.168;4.112;2023-06-14T08:24:24;23.40;1.00
23143;DHT22;11740;51.168;4.112;2023-06-14T08:26:51;23.60;1.00
23143;DHT22;11740;51.168;4.112;2023-06-14T08:29:18;23.80;1.00
23143;DHT22;11740;51.168;4.112;2023-06-14T08:31:45;24.00;1.00
23143;DHT22;11740;51.168;4.112;2023-06-14T08:34:12;24.30;1.00
23143;DHT22;11740;51.168;4.112;2023-06-14T08:36:40;24.50;1.00
23143;DHT22;11740;51.168;4.112;2023-06-14T08:39:07;24.50;1.00
23143;DHT22;11740;51.168;4.112;2023-06-14T08:41:35;24.70;1.00
23143;DHT22;11740;51.168;4.112;2023-06-14T08:44:02;24.80;1.00
23143;DHT22;11740;51.168;4.112;2023-06-14T08:46:31;25.00;1.00
23143;DHT22;11740;51.168;4.112;2023-06-14T08:49:01;25.30;1.00
23143;DHT22;11740;51.168;4.112;2023-06-14T08:51:28;25.30;1.00
23143;DHT22;11740;51.168;4.112;2023-06-14T08:54:00;25.40;1.00
23143;DHT22;11740;51.168;4.112;2023-06-14T08:56:28;25.60;1.00
23143;DHT22;11740;51.168;4.112;2023-06-14T08:58:59;25.60;1.00
23143;DHT22;11740;51.168;4.112;2023-06-14T09:01:33;25.80;1.00
23143;DHT22;11740;51.168;4.112;2023-06-14T09:04:01;25.80;1.00
23143;DHT22;11740;51.168;4.112;2023-06-14T09:06:29;25.90;1.00
23143;DHT22;11740;51.168;4.112;2023-06-14T09:08:56;25.90;1.00
23143;DHT22;11740;51.168;4.112;2023-06-14T09:11:23;25.90;1.00
23143;DHT22;11740;51.168;4.112;2023-06-14T09:13:52;26.10;1.00
23143;DHT22;11740;51.168;4.112;2023-06-14T09:16:19;26.10;1.00
23143;DHT22;11740;51.168;4.112;2023-06-14T09:18:47;26.10;1.00
23143;DHT22;11740;51.168;4.112;2023-06-14T09:21:15;26.10;1.00
23143;DHT22;11740;51.168;4.112;2023-06-14T09:23:44;26.20;1.00
23143;DHT22;11740;51.168;4.112;2023-06-14T09:26:12;26.30;1.00
23143;DHT22;11740;51.168;4.112;2023-06-14T09:28:47;26.50;1.00
23143;DHT22;11740;51.168;4.112;2023-06-14T09:31:18;26.30;1.00
23143;DHT22;11740;51.168;4.112;2023-06-14T09:33:49;26.40;1.00
23143;DHT22;11740;51.168;4.112;2023-06-14T09:36:17;26.50;1.00
23143;DHT22;11740;51.168;4.112;2023-06-14T09:38:52;26.60;1.00
23143;DHT22;11740;51.168;4.112;2023-06-14T09:44:04;26.70;1.00
23143;DHT22;11740;51.168;4.112;2023-06-14T09:46:36;26.70;1.00
23143;DHT22;11740;51.168;4.112;2023-06-14T09:49:03;26.80;1.00
23143;DHT22;11740;51.168;4.112;2023-06-14T09:51:31;26.80;1.00
23143;DHT22;11740;51.168;4.112;2023-06-14T09:53:59;26.80;1.00
23143;DHT22;11740;51.168;4.112;2023-06-14T09:56:28;26.70;1.00
23143;DHT22;11740;51.168;4.112;2023-06-14T09:59:03;26.70;1.00
23143;DHT22;11740;51.168;4.112;2023-06-14T10:01:34;26.70;1.00
23143;DHT22;11740;51.168;4.112;2023-06-14T10:04:03;26.80;1.00
23143;DHT22;11740;51.168;4.112;2023-06-14T10:06:37;26.90;1.00
23143;DHT22;11740;51.168;4.112;2023-06-14T10:09:07;27.00;1.00
23143;DHT22;11740;51.168;4.112;2023-06-14T10:11:35;27.00;1.00
23143;DHT22;11740;51.168;4.112;2023-06-14T10:14:03;27.00;1.00
23143;DHT22;11740;51.168;4.112;2023-06-14T10:22:53;27.20;1.00
23143;DHT22;11740;51.168;4.112;2023-06-14T10:25:01;27.20;1.00
23143;DHT22;11740;51.168;4.112;2023-06-14T10:27:28;27.30;1.00
23143;DHT22;11740;51.168;4.112;2023-06-14T10:32:24;27.50;1.00
23143;DHT22;11740;51.168;4.112;2023-06-14T10:34:55;27.50;1.00
23143;DHT22;11740;51.168;4.112;2023-06-14T10:37:26;27.60;1.00
23143;DHT22;11740;51.168;4.112;2023-06-14T10:39:54;27.60;1.00
23143;DHT22;11740;51.168;4.112;2023-06-14T10:42:21;27.70;1.00
23143;DHT22;11740;51.168;4.112;2023-06-14T10:44:50;27.60;1.00
23143;DHT22;11740;51.168;4.112;2023-06-14T10:47:23;27.70;1.00
23143;DHT22;11740;51.168;4.112;2023-06-14T10:52:25;27.90;1.00
23143;DHT22;11740;51.168;4.112;2023-06-14T10:54:55;28.00;1.00
23143;DHT22;11740;51.168;4.112;2023-06-14T10:57:22;28.00;1.00
23143;DHT22;11740;51.168;4.112;2023-06-14T10:59:50;28.00;1.00
23143;DHT22;11740;51.168;4.112;2023-06-14T11:05:16;28.30;1.00
23143;DHT22;11740;51.168;4.112;2023-06-14T11:10:41;28.40;1.00
23143;DHT22;11740;51.168;4.112;2023-06-14T11:13:12;28.60;1.00
23143;DHT22;11740;51.168;4.112;2023-06-14T11:15:45;28.50;1.00
23143;DHT22;11740;51.168;4.112;2023-06-14T11:18:13;28.50;1.00
23143;DHT22;11740;51.168;4.112;2023-06-14T11:20:40;28.60;1.00
23143;DHT22;11740;51.168;4.112;2023-06-14T11:23:07;28.80;1.00
23143;DHT22;11740;51.168;4.112;2023-06-14T11:25:34;28.90;1.00
23143;DHT22;11740;51.168;4.112;2023-06-14T11:28:01;28.90;1.00
23143;DHT22;11740;51.168;4.112;2023-06-14T11:30:28;29.00;1.00
23143;DHT22;11740;51.168;4.112;2023-06-14T11:32:55;29.00;1.00
23143;DHT22;11740;51.168;4.112;2023-06-14T11:35:25;29.10;1.00
23143;DHT22;11740;51.168;4.112;2023-06-14T11:37:56;29.20;1.00
23143;DHT22;11740;51.168;4.112;2023-06-14T11:40:27;29.30;1.00
23143;DHT22;11740;51.168;4.112;2023-06-14T11:42:57;29.40;1.00
23143;DHT22;11740;51.168;4.112;2023-06-14T11:45:26;29.40;1.00
23143;DHT22;11740;51.168;4.112;2023-06-14T11:47:57;29.50;1.00
23143;DHT22;11740;51.168;4.112;2023-06-14T11:50:25;29.60;1.00
23143;DHT22;11740;51.168;4.112;2023-06-14T11:55:24;29.70;1.00
23143;DHT22;11740;51.168;4.112;2023-06-14T11:57:51;29.80;1.00
23143;DHT22;11740;51.168;4.112;2023-06-14T12:00:22;29.90;1.00
23143;DHT22;11740;51.168;4.112;2023-06-14T12:02:54;30.00;1.00
23143;DHT22;11740;51.168;4.112;2023-06-14T12:05:24;30.00;1.00
23143;DHT22;11740;51.168;4.112;2023-06-14T12:07:59;30.20;1.00
23143;DHT22;11740;51.168;4.112;2023-06-14T12:10:27;30.30;1.00
23143;DHT22;11740;51.168;4.112;2023-06-14T12:12:58;30.30;1.00
23143;DHT22;11740;51.168;4.112;2023-06-14T12:15:29;30.20;1.00
23143;DHT22;11740;51.168;4.112;2023-06-14T12:17:57;30.40;1.00
23143;DHT22;11740;51.168;4.112;2023-06-14T12:20:28;30.50;1.00
23143;DHT22;11740;51.168;4.112;2023-06-14T12:22:57;30.50;1.00
23143;DHT22;11740;51.168;4.112;2023-06-14T12:25:29;30.60;1.00
23143;DHT22;11740;51.168;4.112;2023-06-14T12:28:04;30.70;1.00
23143;DHT22;11740;51.168;4.112;2023-06-14T12:30:33;30.70;1.00
23143;DHT22;11740;51.168;4.112;2023-06-14T12:33:03;30.70;1.00
23143;DHT22;11740;51.168;4.112;2023-06-14T12:35:31;30.90;1.00
23143;DHT22;11740;51.168;4.112;2023-06-14T12:37:58;31.00;1.00
23143;DHT22;11740;51.168;4.112;2023-06-14T12:40:25;31.10;1.00
23143;DHT22;11740;51.168;4.112;2023-06-14T12:42:53;31.20;1.00
23143;DHT22;11740;51.168;4.112;2023-06-14T12:45:19;31.10;1.00
23143;DHT22;11740;51.168;4.112;2023-06-14T12:47:46;31.20;1.00
23143;DHT22;11740;51.168;4.112;2023-06-14T12:50:13;31.50;1.00
23143;DHT22;11740;51.168;4.112;2023-06-14T12:52:41;31.50;1.00
23143;DHT22;11740;51.168;4.112;2023-06-14T12:55:08;31.60;1.00
23143;DHT22;11740;51.168;4.112;2023-06-14T12:57:36;31.70;1.00
23143;DHT22;11740;51.168;4.112;2023-06-14T13:00:04;31.80;1.00
23143;DHT22;11740;51.168;4.112;2023-06-14T13:02:34;31.90;1.00
23143;DHT22;11740;51.168;4.112;2023-06-14T13:05:01;31.80;1.00
23143;DHT22;11740;51.168;4.112;2023-06-14T13:07:30;31.90;1.00
23143;DHT22;11740;51.168;4.112;2023-06-14T13:09:57;31.80;1.00
23143;DHT22;11740;51.168;4.112;2023-06-14T13:12:24;31.80;1.00
23143;DHT22;11740;51.168;4.112;2023-06-14T13:14:51;32.00;1.00
23143;DHT22;11740;51.168;4.112;2023-06-14T13:17:17;32.20;1.00
23143;DHT22;11740;51.168;4.112;2023-06-14T13:19:44;32.20;1.00
23143;DHT22;11740;51.168;4.112;2023-06-14T13:22:11;32.30;1.00
23143;DHT22;11740;51.168;4.112;2023-06-14T13:24:38;32.40;1.00
23143;DHT22;11740;51.168;4.112;2023-06-14T13:27:05;32.50;1.00
23143;DHT22;11740;51.168;4.112;2023-06-14T13:29:33;32.60;1.00
23143;DHT22;11740;51.168;4.112;2023-06-14T13:32:03;32.70;1.00
23143;DHT22;11740;51.168;4.112;2023-06-14T13:34:30;32.80;1.00
23143;DHT22;11740;51.168;4.112;2023-06-14T13:36:57;33.00;1.00
23143;DHT22;11740;51.168;4.112;2023-06-14T13:39:25;33.00;1.00
23143;DHT22;11740;51.168;4.112;2023-06-14T13:41:52;32.90;1.00
23143;DHT22;11740;51.168;4.112;2023-06-14T13:44:19;33.00;1.00
23143;DHT22;11740;51.168;4.112;2023-06-14T13:46:48;32.90;1.00
23143;DHT22;11740;51.168;4.112;2023-06-14T13:49:15;33.00;1.00
23143;DHT22;11740;51.168;4.112;2023-06-14T13:51:41;33.20;1.00
23143;DHT22;11740;51.168;4.112;2023-06-14T13:54:08;33.10;1.00
23143;DHT22;11740;51.168;4.112;2023-06-14T13:56:35;33.20;1.00
23143;DHT22;11740;51.168;4.112;2023-06-14T13:59:02;33.30;1.00
23143;DHT22;11740;51.168;4.112;2023-06-14T14:01:29;33.50;1.00
23143;DHT22;11740;51.168;4.112;2023-06-14T14:03:56;33.60;1.00
23143;DHT22;11740;51.168;4.112;2023-06-14T14:06:25;33.60;1.00
23143;DHT22;11740;51.168;4.112;2023-06-14T14:08:52;33.60;1.00
23143;DHT22;11740;51.168;4.112;2023-06-14T14:11:19;33.70;1.00
23143;DHT22;11740;51.168;4.112;2023-06-14T14:13:46;34.00;1.00
23143;DHT22;11740;51.168;4.112;2023-06-14T14:16:14;33.90;1.00
23143;DHT22;11740;51.168;4.112;2023-06-14T14:18:41;33.90;1.00
23143;DHT22;11740;51.168;4.112;2023-06-14T14:21:08;33.90;1.00
23143;DHT22;11740;51.168;4.112;2023-06-14T14:23:36;34.20;1.00
23143;DHT22;11740;51.168;4.112;2023-06-14T14:26:06;34.30;1.00
23143;DHT22;11740;51.168;4.112;2023-06-14T14:28:33;34.40;1.00
23143;DHT22;11740;51.168;4.112;2023-06-14T14:31:01;34.30;1.00
23143;DHT22;11740;51.168;4.112;2023-06-14T14:33:28;34.50;1.00
23143;DHT22;11740;51.168;4.112;2023-06-14T14:35:55;34.50;1.00
23143;DHT22;11740;51.168;4.112;2023-06-14T14:38:22;34.60;1.00
23143;DHT22;11740;51.168;4.112;2023-06-14T14:40:49;34.70;1.00
23143;DHT22;11740;51.168;4.112;2023-06-14T14:43:15;34.80;1.00
23143;DHT22;11740;51.168;4.112;2023-06-14T14:45:42;34.90;1.00
23143;DHT22;11740;51.168;4.112;2023-06-14T14:48:09;34.90;1.00
23143;DHT22;11740;51.168;4.112;2023-06-14T14:50:36;35.10;1.00
23143;DHT22;11740;51.168;4.112;2023-06-14T14:53:05;35.20;1.00
23143;DHT22;11740;51.168;4.112;2023-06-14T14:55:32;35.30;1.00
23143;DHT22;11740;51.168;4.112;2023-06-14T14:58:02;35.40;1.00
23143;DHT22;11740;51.168;4.112;2023-06-14T15:00:29;35.20;1.00
23143;DHT22;11740;51.168;4.112;2023-06-14T15:02:56;35.40;1.00
23143;DHT22;11740;51.168;4.112;2023-06-14T15:05:23;35.60;1.00
23143;DHT22;11740;51.168;4.112;2023-06-14T15:07:50;35.50;1.00
23143;DHT22;11740;51.168;4.112;2023-06-14T15:10:16;35.60;1.00
23143;DHT22;11740;51.168;4.112;2023-06-14T15:12:44;35.80;1.00
23143;DHT22;11740;51.168;4.112;2023-06-14T15:15:11;35.70;1.00
23143;DHT22;11740;51.168;4.112;2023-06-14T15:17:37;35.60;1.00
23143;DHT22;11740;51.168;4.112;2023-06-14T15:20:05;35.70;1.00
23143;DHT22;11740;51.168;4.112;2023-06-14T15:22:32;36.00;1.00
23143;DHT22;11740;51.168;4.112;2023-06-14T15:24:59;36.00;1.00
23143;DHT22;11740;51.168;4.112;2023-06-14T15:27:26;36.10;1.00
23143;DHT22;11740;51.168;4.112;2023-06-14T15:29:54;36.10;1.00
23143;DHT22;11740;51.168;4.112;2023-06-14T15:32:21;36.20;1.00
23143;DHT22;11740;51.168;4.112;2023-06-14T15:34:48;36.20;1.00
23143;DHT22;11740;51.168;4.112;2023-06-14T15:37:15;36.20;1.00
23143;DHT22;11740;51.168;4.112;2023-06-14T15:39:42;36.50;1.00
23143;DHT22;11740;51.168;4.112;2023-06-14T15:42:09;36.70;1.00
23143;DHT22;11740;51.168;4.112;2023-06-14T15:44:36;36.90;1.00
23143;DHT22;11740;51.168;4.112;2023-06-14T15:47:03;36.80;1.00
23143;DHT22;11740;51.168;4.112;2023-06-14T15:49:30;36.40;1.00
23143;DHT22;11740;51.168;4.112;2023-06-14T15:51:56;36.50;1.00
23143;DHT22;11740;51.168;4.112;2023-06-14T15:54:23;36.70;1.00
23143;DHT22;11740;51.168;4.112;2023-06-14T15:56:50;36.80;1.00
23143;DHT22;11740;51.168;4.112;2023-06-14T15:59:17;36.60;1.00
23143;DHT22;11740;51.168;4.112;2023-06-14T16:01:44;36.60;1.00
23143;DHT22;11740;51.168;4.112;2023-06-14T16:04:11;36.60;1.00
23143;DHT22;11740;51.168;4.112;2023-06-14T16:06:39;36.70;1.00
23143;DHT22;11740;51.168;4.112;2023-06-14T16:09:05;36.60;1.00
23143;DHT22;11740;51.168;4.112;2023-06-14T16:11:32;36.60;1.00
23143;DHT22;11740;51.168;4.112;2023-06-14T16:13:59;36.40;1.00
23143;DHT22;11740;51.168;4.112;2023-06-14T16:16:26;36.60;1.00
23143;DHT22;11740;51.168;4.112;2023-06-14T16:18:53;36.70;1.00